sensor_id;sensor_type;location;lat;lon;timestamp;P1;durP1;ratioP1;P2;durP2;ratioP2
42666;SDS011;28280;49.646;14.130;2023-06-22T00:06:57;5.63;;;3.53;;
42666;SDS011;28280;49.646;14.130;2023-06-22T00:17:18;4.38;;;3.08;;
42666;SDS011;28280;49.646;14.130;2023-06-22T00:27:40;4.25;;;3.03;;
42666;SDS011;28280;49.646;14.130;2023-06-22T00:38:01;4.03;;;3.10;;
42666;SDS011;28280;49.646;14.130;2023-06-22T00:48:23;3.90;;;2.97;;
42666;SDS011;28280;49.646;14.130;2023-06-22T00:58:45;4.05;;;3.08;;
42666;SDS011;28280;49.646;14.130;2023-06-22T01:09:14;3.63;;;2.92;;
42666;SDS011;28280;49.646;14.130;2023-06-22T01:19:46;4.20;;;3.20;;
42666;SDS011;28280;49.646;14.130;2023-06-22T01:30:15;4.97;;;3.42;;
42666;SDS011;28280;49.646;14.130;2023-06-22T01:40:37;4.40;;;3.20;;
42666;SDS011;28280;49.646;14.130;2023-06-22T01:50:59;4.65;;;2.83;;
42666;SDS011;28280;49.646;14.130;2023-06-22T02:01:23;4.40;;;3.10;;
42666;SDS011;28280;49.646;14.130;2023-06-22T02:11:46;3.97;;;3.10;;
42666;SDS011;28280;49.646;14.130;2023-06-22T02:22:09;5.03;;;3.10;;
42666;SDS011;28280;49.646;14.130;2023-06-22T02:32:30;4.43;;;3.00;;
42666;SDS011;28280;49.646;14.130;2023-06-22T02:42:55;5.10;;;3.30;;
42666;SDS011;28280;49.646;14.130;2023-06-22T02:53:19;3.13;;;2.60;;
42666;SDS011;28280;49.646;14.130;2023-06-22T03:03:42;4.18;;;2.95;;
42666;SDS011;28280;49.646;14.130;2023-06-22T03:14:03;3.40;;;3.05;;
42666;SDS011;28280;49.646;14.130;2023-06-22T03:24:24;4.40;;;3.03;;
42666;SDS011;28280;49.646;14.130;2023-06-22T03:34:47;3.75;;;2.83;;
42666;SDS011;28280;49.646;14.130;2023-06-22T03:45:10;3.50;;;2.55;;
42666;SDS011;28280;49.646;14.130;2023-06-22T03:55:33;4.50;;;3.08;;
42666;SDS011;28280;49.646;14.130;2023-06-22T04:05:55;3.72;;;2.42;;
42666;SDS011;28280;49.646;14.130;2023-06-22T04:16:16;3.83;;;2.92;;
42666;SDS011;28280;49.646;14.130;2023-06-22T04:26:37;3.97;;;2.70;;
42666;SDS011;28280;49.646;14.130;2023-06-22T04:37:03;7.93;;;3.75;;
42666;SDS011;28280;49.646;14.130;2023-06-22T04:47:24;4.63;;;3.08;;
42666;SDS011;28280;49.646;14.130;2023-06-22T04:57:46;3.90;;;2.83;;
42666;SDS011;28280;49.646;14.130;2023-06-22T05:08:10;3.28;;;2.72;;
42666;SDS011;28280;49.646;14.130;2023-06-22T05:18:31;3.85;;;2.70;;
42666;SDS011;28280;49.646;14.130;2023-06-22T05:28:53;5.75;;;2.92;;
42666;SDS011;28280;49.646;14.130;2023-06-22T05:39:15;3.38;;;2.85;;
42666;SDS011;28280;49.646;14.130;2023-06-22T05:49:36;4.07;;;3.38;;
42666;SDS011;28280;49.646;14.130;2023-06-22T05:59:58;4.45;;;4.00;;
42666;SDS011;28280;49.646;14.130;2023-06-22T06:10:19;3.83;;;3.00;;
42666;SDS011;28280;49.646;14.130;2023-06-22T06:20:41;3.78;;;2.72;;
42666;SDS011;28280;49.646;14.130;2023-06-22T06:31:02;4.18;;;3.00;;
42666;SDS011;28280;49.646;14.130;2023-06-22T06:41:28;3.88;;;2.92;;
42666;SDS011;28280;49.646;14.130;2023-06-22T06:51:49;3.72;;;3.10;;
42666;SDS011;28280;49.646;14.130;2023-06-22T07:02:12;4.40;;;3.65;;
42666;SDS011;28280;49.646;14.130;2023-06-22T07:12:33;4.75;;;3.92;;
42666;SDS011;28280;49.646;14.130;2023-06-22T07:22:55;4.22;;;3.50;;
42666;SDS011;28280;49.646;14.130;2023-06-22T07:33:16;5.30;;;3.85;;
42666;SDS011;28280;49.646;14.130;2023-06-22T07:43:38;5.70;;;3.88;;
42666;SDS011;28280;49.646;14.130;2023-06-22T07:54:00;4.72;;;3.78;;
42666;SDS011;28280;49.646;14.130;2023-06-22T08:04:21;5.60;;;4.30;;
42666;SDS011;28280;49.646;14.130;2023-06-22T08:14:42;6.25;;;4.45;;
42666;SDS011;28280;49.646;14.130;2023-06-22T08:25:07;6.88;;;4.18;;
42666;SDS011;28280;49.646;14.130;2023-06-22T08:35:30;6.13;;;4.18;;
42666;SDS011;28280;49.646;14.130;2023-06-22T08:45:52;8.88;;;4.93;;
42666;SDS011;28280;49.646;14.130;2023-06-22T08:56:13;6.90;;;4.60;;
42666;SDS011;28280;49.646;14.130;2023-06-22T09:06:35;4.97;;;4.47;;
42666;SDS011;28280;49.646;14.130;2023-06-22T09:16:56;5.95;;;4.43;;
42666;SDS011;28280;49.646;14.130;2023-06-22T09:27:18;6.97;;;4.63;;
42666;SDS011;28280;49.646;14.130;2023-06-22T09:37:40;6.15;;;4.38;;
42666;SDS011;28280;49.646;14.130;2023-06-22T09:48:01;5.75;;;5.00;;
42666;SDS011;28280;49.646;14.130;2023-06-22T09:58:23;7.03;;;4.60;;
42666;SDS011;28280;49.646;14.130;2023-06-22T10:08:44;5.63;;;4.53;;
42666;SDS011;28280;49.646;14.130;2023-06-22T10:19:06;6.68;;;5.28;;
42666;SDS011;28280;49.646;14.130;2023-06-22T10:29:27;7.63;;;5.07;;
42666;SDS011;28280;49.646;14.130;2023-06-22T10:39:49;6.93;;;5.20;;
42666;SDS011;28280;49.646;14.130;2023-06-22T10:50:10;6.88;;;5.50;;
42666;SDS011;28280;49.646;14.130;2023-06-22T11:00:32;6.10;;;5.15;;
42666;SDS011;28280;49.646;14.130;2023-06-22T11:10:53;6.15;;;4.78;;
42666;SDS011;28280;49.646;14.130;2023-06-22T11:21:15;7.03;;;5.03;;
42666;SDS011;28280;49.646;14.130;2023-06-22T11:31:36;5.20;;;4.68;;
42666;SDS011;28280;49.646;14.130;2023-06-22T11:41:57;6.30;;;4.45;;
42666;SDS011;28280;49.646;14.130;2023-06-22T11:52:21;7.00;;;4.68;;
42666;SDS011;28280;49.646;14.130;2023-06-22T12:02:42;7.65;;;5.50;;
42666;SDS011;28280;49.646;14.130;2023-06-22T12:13:03;7.95;;;5.40;;
42666;SDS011;28280;49.646;14.130;2023-06-22T12:23:24;7.43;;;4.80;;
42666;SDS011;28280;49.646;14.130;2023-06-22T12:33:46;8.95;;;5.15;;
42666;SDS011;28280;49.646;14.130;2023-06-22T12:44:07;5.50;;;4.55;;
42666;SDS011;28280;49.646;14.130;2023-06-22T12:54:29;8.48;;;5.50;;
42666;SDS011;28280;49.646;14.130;2023-06-22T13:04:57;6.82;;;4.85;;
42666;SDS011;28280;49.646;14.130;2023-06-22T13:15:18;5.65;;;4.72;;
42666;SDS011;28280;49.646;14.130;2023-06-22T13:25:40;8.18;;;4.82;;
42666;SDS011;28280;49.646;14.130;2023-06-22T13:36:00;7.45;;;5.07;;
42666;SDS011;28280;49.646;14.130;2023-06-22T13:46:24;6.57;;;4.75;;
42666;SDS011;28280;49.646;14.130;2023-06-22T13:56:46;7.25;;;4.80;;
42666;SDS011;28280;49.646;14.130;2023-06-22T14:07:07;8.55;;;4.57;;
42666;SDS011;28280;49.646;14.130;2023-06-22T14:17:28;8.23;;;4.63;;
42666;SDS011;28280;49.646;14.130;2023-06-22T14:27:50;9.35;;;4.75;;
42666;SDS011;28280;49.646;14.130;2023-06-22T14:38:12;5.47;;;4.63;;
42666;SDS011;28280;49.646;14.130;2023-06-22T14:48:33;4.93;;;4.00;;
42666;SDS011;28280;49.646;14.130;2023-06-22T14:58:55;5.07;;;4.00;;
42666;SDS011;28280;49.646;14.130;2023-06-22T15:09:16;6.03;;;4.05;;
42666;SDS011;28280;49.646;14.130;2023-06-22T15:19:38;5.03;;;3.88;;
42666;SDS011;28280;49.646;14.130;2023-06-22T15:29:59;4.93;;;3.88;;
42666;SDS011;28280;49.646;14.130;2023-06-22T15:40:22;7.70;;;3.78;;
42666;SDS011;28280;49.646;14.130;2023-06-22T15:50:43;5.63;;;3.93;;
42666;SDS011;28280;49.646;14.130;2023-06-22T16:01:04;5.65;;;4.00;;
42666;SDS011;28280;49.646;14.130;2023-06-22T16:11:26;6.22;;;3.63;;
42666;SDS011;28280;49.646;14.130;2023-06-22T16:21:47;6.82;;;3.63;;
42666;SDS011;28280;49.646;14.130;2023-06-22T16:32:08;5.32;;;3.67;;
42666;SDS011;28280;49.646;14.130;2023-06-22T16:42:31;7.40;;;4.30;;
42666;SDS011;28280;49.646;14.130;2023-06-22T16:52:52;5.32;;;3.97;;
42666;SDS011;28280;49.646;14.130;2023-06-22T17:03:15;6.43;;;3.92;;
42666;SDS011;28280;49.646;14.130;2023-06-22T17:13:46;8.88;;;4.10;;
42666;SDS011;28280;49.646;14.130;2023-06-22T17:24:07;7.18;;;4.18;;
42666;SDS011;28280;49.646;14.130;2023-06-22T17:34:30;7.07;;;4.00;;
42666;SDS011;28280;49.646;14.130;2023-06-22T17:44:59;8.07;;;3.87;;
42666;SDS011;28280;49.646;14.130;2023-06-22T17:55:22;5.15;;;3.92;;
42666;SDS011;28280;49.646;14.130;2023-06-22T18:05:45;7.60;;;4.57;;
42666;SDS011;28280;49.646;14.130;2023-06-22T18:16:08;5.70;;;4.20;;
42666;SDS011;28280;49.646;14.130;2023-06-22T18:26:31;6.50;;;4.37;;
42666;SDS011;28280;49.646;14.130;2023-06-22T18:36:53;9.40;;;4.22;;
42666;SDS011;28280;49.646;14.130;2023-06-22T18:47:19;7.15;;;4.63;;
42666;SDS011;28280;49.646;14.130;2023-06-22T18:57:48;8.80;;;4.80;;
42666;SDS011;28280;49.646;14.130;2023-06-22T19:19:40;5.63;;;4.20;;
42666;SDS011;28280;49.646;14.130;2023-06-22T19:30:02;9.55;;;4.88;;
42666;SDS011;28280;49.646;14.130;2023-06-22T19:40:26;25.40;;;5.22;;
42666;SDS011;28280;49.646;14.130;2023-06-22T19:50:48;8.20;;;4.25;;
42666;SDS011;28280;49.646;14.130;2023-06-22T20:01:09;7.68;;;4.50;;
42666;SDS011;28280;49.646;14.130;2023-06-22T20:11:31;7.35;;;5.32;;
42666;SDS011;28280;49.646;14.130;2023-06-22T20:21:54;8.00;;;4.57;;
42666;SDS011;28280;49.646;14.130;2023-06-22T20:32:15;7.88;;;5.20;;
42666;SDS011;28280;49.646;14.130;2023-06-22T20:42:37;10.43;;;5.65;;
42666;SDS011;28280;49.646;14.130;2023-06-22T20:52:58;7.32;;;5.43;;
42666;SDS011;28280;49.646;14.130;2023-06-22T21:03:21;8.77;;;5.47;;
42666;SDS011;28280;49.646;14.130;2023-06-22T21:13:42;8.27;;;5.32;;
42666;SDS011;28280;49.646;14.130;2023-06-22T21:24:04;9.68;;;5.35;;
42666;SDS011;28280;49.646;14.130;2023-06-22T21:34:25;6.75;;;4.88;;
42666;SDS011;28280;49.646;14.130;2023-06-22T21:44:47;9.35;;;5.43;;
42666;SDS011;28280;49.646;14.130;2023-06-22T21:55:08;8.52;;;5.05;;
42666;SDS011;28280;49.646;14.130;2023-06-22T22:05:30;9.40;;;5.75;;
42666;SDS011;28280;49.646;14.130;2023-06-22T22:15:52;12.20;;;5.72;;
42666;SDS011;28280;49.646;14.130;2023-06-22T22:26:14;13.50;;;6.05;;
42666;SDS011;28280;49.646;14.130;2023-06-22T22:36:36;9.90;;;5.25;;
42666;SDS011;28280;49.646;14.130;2023-06-22T22:47:00;10.35;;;6.13;;
42666;SDS011;28280;49.646;14.130;2023-06-22T22:57:22;9.85;;;5.22;;
42666;SDS011;28280;49.646;14.130;2023-06-22T23:07:43;11.35;;;5.53;;
42666;SDS011;28280;49.646;14.130;2023-06-22T23:18:04;7.05;;;3.92;;
42666;SDS011;28280;49.646;14.130;2023-06-22T23:28:29;5.30;;;3.42;;
42666;SDS011;28280;49.646;14.130;2023-06-22T23:38:57;10.52;;;3.70;;
42666;SDS011;28280;49.646;14.130;2023-06-22T23:49:18;7.47;;;3.53;;
42666;SDS011;28280;49.646;14.130;2023-06-22T23:59:39;5.05;;;3.17;;
